sensor_id;sensor_type;location;lat;lon;timestamp;noise_LAeq;noise_LA_min;noise_LA_max;noise_LA01;noise_LA95
57092;Laerm;42968;52.094;4.328;2023-05-16T00:00:29;53.02;36.91;67.15;;
57092;Laerm;42968;52.094;4.328;2023-05-16T00:02:59;54.75;36.91;75.06;;
57092;Laerm;42968;52.094;4.328;2023-05-16T00:05:24;51.22;35.36;69.09;;
57092;Laerm;42968;52.094;4.328;2023-05-16T00:07:51;39.65;35.66;42.88;;
57092;Laerm;42968;52.094;4.328;2023-05-16T00:10:16;49.46;36.69;65.98;;
57092;Laerm;42968;52.094;4.328;2023-05-16T00:12:42;51.73;36.45;68.76;;
57092;Laerm;42968;52.094;4.328;2023-05-16T00:15:09;43.49;35.36;59.89;;
57092;Laerm;42968;52.094;4.328;2023-05-16T00:17:36;57.15;36.20;72.24;;
57092;Laerm;42968;52.094;4.328;2023-05-16T00:20:02;50.67;36.45;69.97;;
57092;Laerm;42968;52.094;4.328;2023-05-16T00:22:31;40.17;35.04;46.07;;
57092;Laerm;42968;52.094;4.328;2023-05-16T00:24:57;56.36;35.36;75.17;;
57092;Laerm;42968;52.094;4.328;2023-05-16T00:27:22;42.63;35.94;60.27;;
57092;Laerm;42968;52.094;4.328;2023-05-16T00:29:47;51.55;35.04;69.35;;
57092;Laerm;42968;52.094;4.328;2023-05-16T00:32:12;55.16;36.20;71.78;;
57092;Laerm;42968;52.094;4.328;2023-05-16T00:34:38;55.64;37.32;71.65;;
57092;Laerm;42968;52.094;4.328;2023-05-16T00:37:03;50.75;36.10;68.13;;
57092;Laerm;42968;52.094;4.328;2023-05-16T00:39:29;40.79;35.36;56.20;;
57092;Laerm;42968;52.094;4.328;2023-05-16T00:41:54;40.86;35.94;46.40;;
57092;Laerm;42968;52.094;4.328;2023-05-16T00:44:21;40.53;36.10;49.57;;
57092;Laerm;42968;52.094;4.328;2023-05-16T00:46:47;53.86;36.20;70.58;;
57092;Laerm;42968;52.094;4.328;2023-05-16T00:49:12;52.01;35.94;70.88;;
57092;Laerm;42968;52.094;4.328;2023-05-16T00:51:37;55.66;37.12;76.87;;
57092;Laerm;42968;52.094;4.328;2023-05-16T00:54:03;52.80;35.94;69.83;;
57092;Laerm;42968;52.094;4.328;2023-05-16T00:56:29;41.25;36.45;46.76;;
57092;Laerm;42968;52.094;4.328;2023-05-16T00:58:54;50.53;36.69;66.15;;
57092;Laerm;42968;52.094;4.328;2023-05-16T01:01:19;53.49;35.04;71.99;;
57092;Laerm;42968;52.094;4.328;2023-05-16T01:03:47;40.91;35.66;45.97;;
57092;Laerm;42968;52.094;4.328;2023-05-16T01:06:13;41.05;35.66;57.11;;
57092;Laerm;42968;52.094;4.328;2023-05-16T01:08:39;57.03;35.66;74.04;;
57092;Laerm;42968;52.094;4.328;2023-05-16T01:13:32;51.39;35.59;68.41;;
57092;Laerm;42968;52.094;4.328;2023-05-16T01:16:05;52.28;35.36;68.48;;
57092;Laerm;42968;52.094;4.328;2023-05-16T01:18:36;40.28;33.90;43.44;;
57092;Laerm;42968;52.094;4.328;2023-05-16T01:21:08;48.57;35.66;68.98;;
57092;Laerm;42968;52.094;4.328;2023-05-16T01:26:20;54.92;36.91;72.24;;
57092;Laerm;42968;52.094;4.328;2023-05-16T01:28:46;53.50;35.66;71.90;;
57092;Laerm;42968;52.094;4.328;2023-05-16T01:31:12;52.73;35.94;72.27;;
57092;Laerm;42968;52.094;4.328;2023-05-16T01:33:37;50.31;35.04;70.72;;
57092;Laerm;42968;52.094;4.328;2023-05-16T01:38:41;39.72;34.34;46.54;;
57092;Laerm;42968;52.094;4.328;2023-05-16T01:41:20;40.71;35.94;49.32;;
57092;Laerm;42968;52.094;4.328;2023-05-16T01:43:50;55.83;37.70;72.15;;
57092;Laerm;42968;52.094;4.328;2023-05-16T01:46:36;52.40;36.20;68.64;;
57092;Laerm;42968;52.094;4.328;2023-05-16T01:49:04;41.02;35.94;52.27;;
57092;Laerm;42968;52.094;4.328;2023-05-16T01:51:32;47.75;35.94;67.76;;
57092;Laerm;42968;52.094;4.328;2023-05-16T01:54:04;54.78;38.18;69.27;;
57092;Laerm;42968;52.094;4.328;2023-05-16T01:56:30;39.88;35.04;47.32;;
57092;Laerm;42968;52.094;4.328;2023-05-16T01:58:56;55.94;38.21;69.03;;
57092;Laerm;42968;52.094;4.328;2023-05-16T02:01:22;51.78;35.04;72.49;;
57092;Laerm;42968;52.094;4.328;2023-05-16T02:03:47;52.84;35.04;71.31;;
57092;Laerm;42968;52.094;4.328;2023-05-16T02:06:13;54.69;35.04;69.28;;
57092;Laerm;42968;52.094;4.328;2023-05-16T02:08:38;40.57;35.66;47.98;;
57092;Laerm;42968;52.094;4.328;2023-05-16T02:11:03;53.69;35.66;73.54;;
57092;Laerm;42968;52.094;4.328;2023-05-16T02:13:29;49.52;36.69;67.91;;
57092;Laerm;42968;52.094;4.328;2023-05-16T02:15:54;40.17;35.04;53.44;;
57092;Laerm;42968;52.094;4.328;2023-05-16T02:18:20;53.03;35.04;69.34;;
57092;Laerm;42968;52.094;4.328;2023-05-16T02:20:47;55.12;37.70;69.45;;
57092;Laerm;42968;52.094;4.328;2023-05-16T02:23:12;56.07;36.20;73.18;;
57092;Laerm;42968;52.094;4.328;2023-05-16T02:25:38;49.11;35.04;66.54;;
57092;Laerm;42968;52.094;4.328;2023-05-16T02:28:03;46.92;35.66;68.78;;
57092;Laerm;42968;52.094;4.328;2023-05-16T02:30:28;51.99;35.94;66.99;;
57092;Laerm;42968;52.094;4.328;2023-05-16T02:32:53;54.41;37.70;69.44;;
57092;Laerm;42968;52.094;4.328;2023-05-16T02:35:19;56.68;36.98;71.33;;
57092;Laerm;42968;52.094;4.328;2023-05-16T02:37:44;55.41;36.91;74.08;;
57092;Laerm;42968;52.094;4.328;2023-05-16T02:40:09;54.48;35.94;71.36;;
57092;Laerm;42968;52.094;4.328;2023-05-16T02:42:35;57.36;36.20;72.12;;
57092;Laerm;42968;52.094;4.328;2023-05-16T02:45:00;54.97;37.88;70.96;;
57092;Laerm;42968;52.094;4.328;2023-05-16T02:47:25;53.13;37.70;69.08;;
57092;Laerm;42968;52.094;4.328;2023-05-16T02:49:51;51.88;36.91;68.88;;
57092;Laerm;42968;52.094;4.328;2023-05-16T02:52:17;54.01;37.88;72.75;;
57092;Laerm;42968;52.094;4.328;2023-05-16T02:54:42;53.19;37.12;68.25;;
57092;Laerm;42968;52.094;4.328;2023-05-16T02:57:07;56.55;36.45;74.66;;
57092;Laerm;42968;52.094;4.328;2023-05-16T02:59:32;58.95;38.95;78.43;;
57092;Laerm;42968;52.094;4.328;2023-05-16T03:01:58;58.67;37.52;76.31;;
57092;Laerm;42968;52.094;4.328;2023-05-16T03:04:23;57.02;37.32;74.51;;
57092;Laerm;42968;52.094;4.328;2023-05-16T03:06:49;58.93;39.21;74.79;;
57092;Laerm;42968;52.094;4.328;2023-05-16T03:09:15;53.94;38.05;69.60;;
57092;Laerm;42968;52.094;4.328;2023-05-16T03:11:40;52.99;38.60;68.62;;
57092;Laerm;42968;52.094;4.328;2023-05-16T03:14:06;60.03;37.88;75.65;;
57092;Laerm;42968;52.094;4.328;2023-05-16T03:16:32;60.15;40.33;74.68;;
57092;Laerm;42968;52.094;4.328;2023-05-16T03:18:57;59.73;42.09;76.03;;
57092;Laerm;42968;52.094;4.328;2023-05-16T03:21:23;62.69;40.13;79.25;;
57092;Laerm;42968;52.094;4.328;2023-05-16T03:23:48;62.49;42.09;78.78;;
57092;Laerm;42968;52.094;4.328;2023-05-16T03:26:14;70.84;38.67;92.26;;
57092;Laerm;42968;52.094;4.328;2023-05-16T03:28:40;60.84;42.35;74.95;;
57092;Laerm;42968;52.094;4.328;2023-05-16T03:31:06;63.62;42.93;75.37;;
57092;Laerm;42968;52.094;4.328;2023-05-16T03:33:31;62.74;41.46;76.92;;
57092;Laerm;42968;52.094;4.328;2023-05-16T03:35:56;64.31;45.83;78.25;;
57092;Laerm;42968;52.094;4.328;2023-05-16T03:38:22;62.79;43.49;77.77;;
57092;Laerm;42968;52.094;4.328;2023-05-16T03:40:47;64.76;47.52;80.28;;
57092;Laerm;42968;52.094;4.328;2023-05-16T03:43:12;66.09;41.22;79.83;;
57092;Laerm;42968;52.094;4.328;2023-05-16T03:45:38;64.62;44.19;80.22;;
57092;Laerm;42968;52.094;4.328;2023-05-16T03:48:04;63.24;42.22;75.74;;
57092;Laerm;42968;52.094;4.328;2023-05-16T03:50:29;65.34;41.53;85.74;;
57092;Laerm;42968;52.094;4.328;2023-05-16T03:52:55;68.85;39.34;93.05;;
57092;Laerm;42968;52.094;4.328;2023-05-16T03:55:20;68.63;48.54;87.14;;
57092;Laerm;42968;52.094;4.328;2023-05-16T03:57:45;65.60;46.59;76.00;;
57092;Laerm;42968;52.094;4.328;2023-05-16T04:00:12;65.01;46.59;79.31;;
57092;Laerm;42968;52.094;4.328;2023-05-16T04:02:38;64.90;42.82;80.10;;
57092;Laerm;42968;52.094;4.328;2023-05-16T04:05:07;62.65;43.34;77.56;;
57092;Laerm;42968;52.094;4.328;2023-05-16T04:07:32;64.52;42.76;79.58;;
57092;Laerm;42968;52.094;4.328;2023-05-16T04:09:58;63.24;42.93;73.68;;
57092;Laerm;42968;52.094;4.328;2023-05-16T04:12:23;65.97;47.86;77.79;;
57092;Laerm;42968;52.094;4.328;2023-05-16T04:14:48;64.31;46.52;76.93;;
57092;Laerm;42968;52.094;4.328;2023-05-16T04:17:13;66.06;45.04;77.37;;
57092;Laerm;42968;52.094;4.328;2023-05-16T04:19:38;66.15;43.24;78.74;;
57092;Laerm;42968;52.094;4.328;2023-05-16T04:22:04;65.95;44.43;87.98;;
57092;Laerm;42968;52.094;4.328;2023-05-16T04:24:30;68.14;46.23;81.53;;
57092;Laerm;42968;52.094;4.328;2023-05-16T04:26:55;67.03;45.11;81.38;;
57092;Laerm;42968;52.094;4.328;2023-05-16T04:29:20;66.69;46.33;76.72;;
57092;Laerm;42968;52.094;4.328;2023-05-16T04:31:46;67.42;46.66;78.20;;
57092;Laerm;42968;52.094;4.328;2023-05-16T04:34:11;68.59;49.36;82.40;;
57092;Laerm;42968;52.094;4.328;2023-05-16T04:36:37;66.59;45.39;77.25;;
57092;Laerm;42968;52.094;4.328;2023-05-16T04:39:02;69.69;49.18;78.41;;
57092;Laerm;42968;52.094;4.328;2023-05-16T04:41:28;68.66;44.19;82.07;;
57092;Laerm;42968;52.094;4.328;2023-05-16T04:43:54;68.39;46.91;77.72;;
57092;Laerm;42968;52.094;4.328;2023-05-16T04:46:19;70.28;47.65;85.89;;
57092;Laerm;42968;52.094;4.328;2023-05-16T04:48:44;70.13;49.40;83.42;;
57092;Laerm;42968;52.094;4.328;2023-05-16T04:51:10;68.73;50.60;77.85;;
57092;Laerm;42968;52.094;4.328;2023-05-16T04:53:36;66.19;46.59;76.40;;
57092;Laerm;42968;52.094;4.328;2023-05-16T04:56:01;69.93;49.32;78.77;;
57092;Laerm;42968;52.094;4.328;2023-05-16T04:58:26;68.34;47.00;81.21;;
57092;Laerm;42968;52.094;4.328;2023-05-16T05:00:52;69.16;51.94;82.41;;
57092;Laerm;42968;52.094;4.328;2023-05-16T05:03:18;68.82;52.85;78.35;;
57092;Laerm;42968;52.094;4.328;2023-05-16T05:05:43;68.77;51.16;78.46;;
57092;Laerm;42968;52.094;4.328;2023-05-16T05:08:08;68.26;50.82;77.72;;
57092;Laerm;42968;52.094;4.328;2023-05-16T05:10:34;68.93;49.95;77.78;;
57092;Laerm;42968;52.094;4.328;2023-05-16T05:12:59;69.05;42.22;79.35;;
57092;Laerm;42968;52.094;4.328;2023-05-16T05:15:25;71.93;52.20;83.55;;
57092;Laerm;42968;52.094;4.328;2023-05-16T05:17:50;68.31;46.30;80.61;;
57092;Laerm;42968;52.094;4.328;2023-05-16T05:20:15;69.54;52.67;81.55;;
57092;Laerm;42968;52.094;4.328;2023-05-16T05:22:41;70.60;47.88;79.73;;
57092;Laerm;42968;52.094;4.328;2023-05-16T05:25:06;69.13;51.12;80.75;;
57092;Laerm;42968;52.094;4.328;2023-05-16T05:27:32;68.48;51.03;77.43;;
57092;Laerm;42968;52.094;4.328;2023-05-16T05:29:57;69.12;47.86;77.21;;
57092;Laerm;42968;52.094;4.328;2023-05-16T05:32:22;69.98;49.28;84.50;;
57092;Laerm;42968;52.094;4.328;2023-05-16T05:34:48;69.56;53.87;80.96;;
57092;Laerm;42968;52.094;4.328;2023-05-16T05:37:13;68.30;51.50;79.84;;
57092;Laerm;42968;52.094;4.328;2023-05-16T05:39:38;70.00;52.11;79.19;;
57092;Laerm;42968;52.094;4.328;2023-05-16T05:42:04;70.26;49.84;80.88;;
57092;Laerm;42968;52.094;4.328;2023-05-16T05:44:29;70.38;48.58;90.19;;
57092;Laerm;42968;52.094;4.328;2023-05-16T05:46:55;68.76;50.91;79.59;;
57092;Laerm;42968;52.094;4.328;2023-05-16T05:49:21;70.13;51.96;76.66;;
57092;Laerm;42968;52.094;4.328;2023-05-16T05:51:47;71.95;47.76;85.52;;
57092;Laerm;42968;52.094;4.328;2023-05-16T05:54:15;70.88;48.07;79.10;;
57092;Laerm;42968;52.094;4.328;2023-05-16T05:56:41;70.79;48.96;78.61;;
57092;Laerm;42968;52.094;4.328;2023-05-16T05:59:06;70.09;48.45;80.34;;
57092;Laerm;42968;52.094;4.328;2023-05-16T06:01:31;70.90;54.96;80.99;;
57092;Laerm;42968;52.094;4.328;2023-05-16T06:03:56;70.52;55.39;81.28;;
57092;Laerm;42968;52.094;4.328;2023-05-16T06:06:22;68.97;51.30;78.88;;
57092;Laerm;42968;52.094;4.328;2023-05-16T06:08:47;69.97;54.01;77.45;;
57092;Laerm;42968;52.094;4.328;2023-05-16T06:11:13;71.36;54.33;81.41;;
57092;Laerm;42968;52.094;4.328;2023-05-16T06:13:38;69.56;54.48;82.08;;
57092;Laerm;42968;52.094;4.328;2023-05-16T06:16:03;67.89;57.66;82.71;;
57092;Laerm;42968;52.094;4.328;2023-05-16T06:18:29;81.18;49.96;103.37;;
57092;Laerm;42968;52.094;4.328;2023-05-16T06:20:54;68.96;56.66;80.34;;
57092;Laerm;42968;52.094;4.328;2023-05-16T06:23:19;69.69;54.72;76.62;;
57092;Laerm;42968;52.094;4.328;2023-05-16T06:25:45;68.99;53.24;77.17;;
57092;Laerm;42968;52.094;4.328;2023-05-16T06:28:11;70.32;59.39;83.64;;
57092;Laerm;42968;52.094;4.328;2023-05-16T06:30:36;70.23;59.40;82.41;;
57092;Laerm;42968;52.094;4.328;2023-05-16T06:33:02;68.68;57.53;79.01;;
57092;Laerm;42968;52.094;4.328;2023-05-16T06:35:27;69.11;55.95;80.06;;
57092;Laerm;42968;52.094;4.328;2023-05-16T06:37:52;70.47;50.44;79.03;;
57092;Laerm;42968;52.094;4.328;2023-05-16T06:40:17;69.94;55.81;79.98;;
57092;Laerm;42968;52.094;4.328;2023-05-16T06:42:43;70.97;58.97;80.72;;
57092;Laerm;42968;52.094;4.328;2023-05-16T06:45:08;70.32;51.91;78.89;;
57092;Laerm;42968;52.094;4.328;2023-05-16T06:47:34;69.77;53.42;81.36;;
57092;Laerm;42968;52.094;4.328;2023-05-16T06:49:59;68.95;58.28;81.90;;
57092;Laerm;42968;52.094;4.328;2023-05-16T06:52:25;69.79;55.70;78.91;;
57092;Laerm;42968;52.094;4.328;2023-05-16T06:54:51;69.66;53.74;79.35;;
57092;Laerm;42968;52.094;4.328;2023-05-16T06:57:16;69.48;57.36;78.05;;
57092;Laerm;42968;52.094;4.328;2023-05-16T06:59:41;70.34;57.56;78.95;;
57092;Laerm;42968;52.094;4.328;2023-05-16T07:02:07;70.34;45.51;77.58;;
57092;Laerm;42968;52.094;4.328;2023-05-16T07:04:32;70.49;55.10;80.23;;
57092;Laerm;42968;52.094;4.328;2023-05-16T07:06:58;69.60;55.42;86.80;;
57092;Laerm;42968;52.094;4.328;2023-05-16T07:09:23;70.72;56.04;78.99;;
57092;Laerm;42968;52.094;4.328;2023-05-16T07:11:48;68.95;57.16;79.49;;
57092;Laerm;42968;52.094;4.328;2023-05-16T07:14:14;69.30;52.92;77.39;;
57092;Laerm;42968;52.094;4.328;2023-05-16T07:16:39;69.67;53.61;82.67;;
57092;Laerm;42968;52.094;4.328;2023-05-16T07:19:05;69.31;49.46;78.46;;
57092;Laerm;42968;52.094;4.328;2023-05-16T07:21:30;70.90;56.04;82.73;;
57092;Laerm;42968;52.094;4.328;2023-05-16T07:23:55;68.89;56.21;76.84;;
57092;Laerm;42968;52.094;4.328;2023-05-16T07:26:21;69.33;44.80;77.11;;
57092;Laerm;42968;52.094;4.328;2023-05-16T07:28:50;70.96;45.20;78.46;;
57092;Laerm;42968;52.094;4.328;2023-05-16T07:31:16;67.91;52.78;76.26;;
57092;Laerm;42968;52.094;4.328;2023-05-16T07:33:41;70.72;59.57;87.55;;
57092;Laerm;42968;52.094;4.328;2023-05-16T07:36:06;70.05;56.32;81.53;;
57092;Laerm;42968;52.094;4.328;2023-05-16T07:38:32;67.75;49.91;76.66;;
57092;Laerm;42968;52.094;4.328;2023-05-16T07:40:57;69.82;50.78;77.18;;
57092;Laerm;42968;52.094;4.328;2023-05-16T07:43:22;70.47;46.35;87.23;;
57092;Laerm;42968;52.094;4.328;2023-05-16T07:45:48;69.72;49.16;80.26;;
57092;Laerm;42968;52.094;4.328;2023-05-16T07:48:13;68.33;45.99;76.30;;
57092;Laerm;42968;52.094;4.328;2023-05-16T07:50:38;69.66;47.32;82.11;;
57092;Laerm;42968;52.094;4.328;2023-05-16T07:53:04;69.25;51.64;83.48;;
57092;Laerm;42968;52.094;4.328;2023-05-16T07:55:29;68.57;51.62;82.66;;
57092;Laerm;42968;52.094;4.328;2023-05-16T07:57:54;68.86;51.01;75.45;;
57092;Laerm;42968;52.094;4.328;2023-05-16T08:00:20;68.33;50.52;75.51;;
57092;Laerm;42968;52.094;4.328;2023-05-16T08:02:45;68.67;50.67;79.83;;
57092;Laerm;42968;52.094;4.328;2023-05-16T08:05:11;67.80;47.22;79.93;;
57092;Laerm;42968;52.094;4.328;2023-05-16T08:07:36;70.83;54.33;88.30;;
57092;Laerm;42968;52.094;4.328;2023-05-16T08:10:01;67.12;51.81;76.04;;
57092;Laerm;42968;52.094;4.328;2023-05-16T08:12:27;68.63;50.54;81.11;;
57092;Laerm;42968;52.094;4.328;2023-05-16T08:14:52;69.01;47.54;79.85;;
57092;Laerm;42968;52.094;4.328;2023-05-16T08:17:18;68.55;50.00;82.21;;
57092;Laerm;42968;52.094;4.328;2023-05-16T08:19:43;69.51;52.09;78.91;;
57092;Laerm;42968;52.094;4.328;2023-05-16T08:22:08;69.17;55.02;82.27;;
57092;Laerm;42968;52.094;4.328;2023-05-16T08:24:34;76.95;50.10;99.79;;
57092;Laerm;42968;52.094;4.328;2023-05-16T08:26:59;68.64;49.04;78.31;;
57092;Laerm;42968;52.094;4.328;2023-05-16T08:29:25;67.79;48.37;77.03;;
57092;Laerm;42968;52.094;4.328;2023-05-16T08:31:50;67.70;48.20;76.71;;
57092;Laerm;42968;52.094;4.328;2023-05-16T08:34:16;69.09;48.57;80.47;;
57092;Laerm;42968;52.094;4.328;2023-05-16T08:36:41;68.40;46.02;78.27;;
57092;Laerm;42968;52.094;4.328;2023-05-16T08:39:06;68.67;47.10;80.98;;
57092;Laerm;42968;52.094;4.328;2023-05-16T08:41:31;68.68;51.10;75.48;;
57092;Laerm;42968;52.094;4.328;2023-05-16T08:43:57;68.89;49.46;77.18;;
57092;Laerm;42968;52.094;4.328;2023-05-16T08:46:22;69.33;45.86;78.61;;
57092;Laerm;42968;52.094;4.328;2023-05-16T08:48:50;69.25;49.07;79.24;;
57092;Laerm;42968;52.094;4.328;2023-05-16T08:51:17;69.83;53.87;79.23;;
57092;Laerm;42968;52.094;4.328;2023-05-16T08:53:44;67.78;52.10;75.82;;
57092;Laerm;42968;52.094;4.328;2023-05-16T08:56:10;68.76;45.01;78.11;;
57092;Laerm;42968;52.094;4.328;2023-05-16T08:58:36;69.06;51.47;77.77;;
57092;Laerm;42968;52.094;4.328;2023-05-16T09:01:03;68.89;46.33;79.79;;
57092;Laerm;42968;52.094;4.328;2023-05-16T09:03:32;81.63;55.12;102.50;;
57092;Laerm;42968;52.094;4.328;2023-05-16T09:05:58;68.28;47.18;78.21;;
57092;Laerm;42968;52.094;4.328;2023-05-16T09:08:24;68.93;46.10;76.07;;
57092;Laerm;42968;52.094;4.328;2023-05-16T09:10:50;68.88;44.54;80.96;;
57092;Laerm;42968;52.094;4.328;2023-05-16T09:13:15;66.53;47.06;74.47;;
57092;Laerm;42968;52.094;4.328;2023-05-16T09:15:41;68.14;45.57;79.33;;
57092;Laerm;42968;52.094;4.328;2023-05-16T09:18:10;69.88;49.34;86.42;;
57092;Laerm;42968;52.094;4.328;2023-05-16T09:20:35;68.44;45.39;76.92;;
57092;Laerm;42968;52.094;4.328;2023-05-16T09:23:07;69.76;48.58;88.21;;
57092;Laerm;42968;52.094;4.328;2023-05-16T09:25:33;66.98;45.99;75.60;;
57092;Laerm;42968;52.094;4.328;2023-05-16T09:27:59;67.72;50.43;77.45;;
57092;Laerm;42968;52.094;4.328;2023-05-16T09:30:29;70.32;53.49;85.86;;
57092;Laerm;42968;52.094;4.328;2023-05-16T09:32:55;66.95;47.46;78.51;;
57092;Laerm;42968;52.094;4.328;2023-05-16T09:35:20;71.08;49.96;86.58;;
57092;Laerm;42968;52.094;4.328;2023-05-16T09:37:46;71.77;46.57;87.02;;
57092;Laerm;42968;52.094;4.328;2023-05-16T09:40:11;68.08;50.06;76.33;;
57092;Laerm;42968;52.094;4.328;2023-05-16T09:42:37;68.03;47.40;76.82;;
57092;Laerm;42968;52.094;4.328;2023-05-16T09:45:02;70.55;54.49;86.06;;
57092;Laerm;42968;52.094;4.328;2023-05-16T09:47:28;69.01;49.91;80.75;;
57092;Laerm;42968;52.094;4.328;2023-05-16T09:49:53;67.99;49.23;81.21;;
57092;Laerm;42968;52.094;4.328;2023-05-16T09:52:18;68.94;45.51;78.74;;
57092;Laerm;42968;52.094;4.328;2023-05-16T09:54:45;67.24;48.16;78.12;;
57092;Laerm;42968;52.094;4.328;2023-05-16T09:57:10;68.47;48.02;78.80;;
57092;Laerm;42968;52.094;4.328;2023-05-16T09:59:36;68.93;53.64;80.19;;
57092;Laerm;42968;52.094;4.328;2023-05-16T10:02:02;67.51;48.07;82.11;;
57092;Laerm;42968;52.094;4.328;2023-05-16T10:04:29;69.07;46.18;78.57;;
57092;Laerm;42968;52.094;4.328;2023-05-16T10:06:54;69.25;49.43;82.79;;
57092;Laerm;42968;52.094;4.328;2023-05-16T10:09:23;72.10;50.21;90.19;;
57092;Laerm;42968;52.094;4.328;2023-05-16T10:11:48;71.27;52.60;86.70;;
57092;Laerm;42968;52.094;4.328;2023-05-16T10:14:16;67.23;46.69;79.13;;
57092;Laerm;42968;52.094;4.328;2023-05-16T10:16:42;68.13;50.54;76.05;;
57092;Laerm;42968;52.094;4.328;2023-05-16T10:19:09;68.56;52.15;79.34;;
57092;Laerm;42968;52.094;4.328;2023-05-16T10:21:36;69.05;49.81;82.72;;
57092;Laerm;42968;52.094;4.328;2023-05-16T10:24:02;70.17;48.76;85.20;;
57092;Laerm;42968;52.094;4.328;2023-05-16T10:26:27;69.40;45.45;78.33;;
57092;Laerm;42968;52.094;4.328;2023-05-16T10:28:53;69.06;50.68;79.56;;
57092;Laerm;42968;52.094;4.328;2023-05-16T10:31:19;70.08;47.76;83.77;;
57092;Laerm;42968;52.094;4.328;2023-05-16T10:33:44;69.13;45.45;78.94;;
57092;Laerm;42968;52.094;4.328;2023-05-16T10:36:10;68.13;49.45;77.11;;
57092;Laerm;42968;52.094;4.328;2023-05-16T10:38:36;68.02;44.51;77.66;;
57092;Laerm;42968;52.094;4.328;2023-05-16T10:41:02;69.12;50.35;77.10;;
57092;Laerm;42968;52.094;4.328;2023-05-16T10:43:28;69.92;51.42;84.36;;
57092;Laerm;42968;52.094;4.328;2023-05-16T10:46:07;69.80;46.50;82.52;;
57092;Laerm;42968;52.094;4.328;2023-05-16T10:48:37;68.73;49.94;78.42;;
57092;Laerm;42968;52.094;4.328;2023-05-16T10:51:03;69.71;49.06;80.84;;
57092;Laerm;42968;52.094;4.328;2023-05-16T10:53:31;69.13;48.60;78.74;;
57092;Laerm;42968;52.094;4.328;2023-05-16T11:06:21;68.09;54.41;84.38;;
57092;Laerm;42968;52.094;4.328;2023-05-16T11:14:28;70.47;49.55;85.25;;
57092;Laerm;42968;52.094;4.328;2023-05-16T11:19:33;70.99;51.37;86.25;;
57092;Laerm;42968;52.094;4.328;2023-05-16T11:22:06;68.91;53.62;79.14;;
57092;Laerm;42968;52.094;4.328;2023-05-16T11:24:37;69.39;54.08;79.48;;
57092;Laerm;42968;52.094;4.328;2023-05-16T11:27:03;69.10;49.33;79.93;;
57092;Laerm;42968;52.094;4.328;2023-05-16T11:29:33;68.77;49.12;83.76;;
57092;Laerm;42968;52.094;4.328;2023-05-16T11:31:59;68.79;51.13;77.46;;
57092;Laerm;42968;52.094;4.328;2023-05-16T11:34:25;69.70;49.36;80.22;;
57092;Laerm;42968;52.094;4.328;2023-05-16T11:36:50;68.74;56.97;76.07;;
57092;Laerm;42968;52.094;4.328;2023-05-16T11:39:15;66.78;46.93;77.19;;
57092;Laerm;42968;52.094;4.328;2023-05-16T11:41:42;68.97;45.63;78.84;;
57092;Laerm;42968;52.094;4.328;2023-05-16T11:44:10;69.58;53.69;80.98;;
57092;Laerm;42968;52.094;4.328;2023-05-16T11:46:37;68.85;53.37;77.81;;
57092;Laerm;42968;52.094;4.328;2023-05-16T11:49:03;68.33;44.69;77.22;;
57092;Laerm;42968;52.094;4.328;2023-05-16T11:51:28;69.39;49.43;79.79;;
57092;Laerm;42968;52.094;4.328;2023-05-16T11:53:54;68.18;50.10;76.28;;
57092;Laerm;42968;52.094;4.328;2023-05-16T11:56:19;67.81;47.24;81.21;;
57092;Laerm;42968;52.094;4.328;2023-05-16T11:58:46;69.81;49.47;79.37;;
57092;Laerm;42968;52.094;4.328;2023-05-16T12:01:11;73.32;54.78;83.97;;
57092;Laerm;42968;52.094;4.328;2023-05-16T12:03:36;68.97;52.64;76.82;;
57092;Laerm;42968;52.094;4.328;2023-05-16T12:06:02;67.74;48.15;78.10;;
57092;Laerm;42968;52.094;4.328;2023-05-16T12:08:28;68.19;48.52;78.76;;
57092;Laerm;42968;52.094;4.328;2023-05-16T12:10:54;68.74;48.00;83.25;;
57092;Laerm;42968;52.094;4.328;2023-05-16T12:13:20;69.67;46.59;78.79;;
57092;Laerm;42968;52.094;4.328;2023-05-16T12:15:47;70.81;49.16;84.85;;
57092;Laerm;42968;52.094;4.328;2023-05-16T12:18:12;68.87;56.55;77.37;;
57092;Laerm;42968;52.094;4.328;2023-05-16T12:20:38;68.65;55.17;76.05;;
57092;Laerm;42968;52.094;4.328;2023-05-16T12:23:04;68.06;48.37;80.62;;
57092;Laerm;42968;52.094;4.328;2023-05-16T12:25:33;68.33;51.59;78.72;;
57092;Laerm;42968;52.094;4.328;2023-05-16T12:28:06;69.34;50.34;77.45;;
57092;Laerm;42968;52.094;4.328;2023-05-16T12:30:32;70.12;53.84;85.37;;
57092;Laerm;42968;52.094;4.328;2023-05-16T12:32:58;68.53;54.19;77.45;;
57092;Laerm;42968;52.094;4.328;2023-05-16T12:35:24;70.42;46.40;83.66;;
57092;Laerm;42968;52.094;4.328;2023-05-16T12:37:49;70.86;49.10;87.64;;
57092;Laerm;42968;52.094;4.328;2023-05-16T12:40:17;69.95;53.78;82.95;;
57092;Laerm;42968;52.094;4.328;2023-05-16T12:42:44;70.64;49.78;85.65;;
57092;Laerm;42968;52.094;4.328;2023-05-16T12:45:13;68.78;51.97;80.94;;
57092;Laerm;42968;52.094;4.328;2023-05-16T12:47:39;70.74;50.27;84.84;;
57092;Laerm;42968;52.094;4.328;2023-05-16T12:50:11;67.55;50.08;74.30;;
57092;Laerm;42968;52.094;4.328;2023-05-16T12:52:45;70.25;54.20;84.08;;
57092;Laerm;42968;52.094;4.328;2023-05-16T12:55:11;69.49;46.40;79.94;;
57092;Laerm;42968;52.094;4.328;2023-05-16T12:57:36;69.67;53.69;79.19;;
57092;Laerm;42968;52.094;4.328;2023-05-16T13:00:01;69.95;53.27;82.25;;
57092;Laerm;42968;52.094;4.328;2023-05-16T13:02:26;70.84;55.50;81.43;;
57092;Laerm;42968;52.094;4.328;2023-05-16T13:04:52;68.76;47.88;78.82;;
57092;Laerm;42968;52.094;4.328;2023-05-16T13:07:17;68.41;48.92;81.73;;
57092;Laerm;42968;52.094;4.328;2023-05-16T13:09:43;69.91;51.49;77.36;;
57092;Laerm;42968;52.094;4.328;2023-05-16T13:12:08;69.46;51.13;79.92;;
57092;Laerm;42968;52.094;4.328;2023-05-16T13:14:33;68.08;53.86;78.35;;
57092;Laerm;42968;52.094;4.328;2023-05-16T13:16:59;70.92;55.16;89.72;;
57092;Laerm;42968;52.094;4.328;2023-05-16T13:19:24;69.46;49.00;77.78;;
57092;Laerm;42968;52.094;4.328;2023-05-16T13:21:49;68.83;50.18;78.90;;
57092;Laerm;42968;52.094;4.328;2023-05-16T13:24:15;67.58;47.74;73.49;;
57092;Laerm;42968;52.094;4.328;2023-05-16T13:26:40;69.35;49.29;79.55;;
57092;Laerm;42968;52.094;4.328;2023-05-16T13:29:06;70.51;52.00;85.44;;
57092;Laerm;42968;52.094;4.328;2023-05-16T13:31:33;69.62;50.40;77.03;;
57092;Laerm;42968;52.094;4.328;2023-05-16T13:33:58;69.79;50.25;79.05;;
57092;Laerm;42968;52.094;4.328;2023-05-16T13:36:24;69.48;54.22;79.75;;
57092;Laerm;42968;52.094;4.328;2023-05-16T13:38:49;68.76;50.34;79.63;;
57092;Laerm;42968;52.094;4.328;2023-05-16T13:41:14;70.40;49.69;86.85;;
57092;Laerm;42968;52.094;4.328;2023-05-16T13:43:40;71.16;49.11;79.11;;
57092;Laerm;42968;52.094;4.328;2023-05-16T13:46:05;75.85;52.40;99.28;;
57092;Laerm;42968;52.094;4.328;2023-05-16T13:48:30;69.05;48.39;79.98;;
57092;Laerm;42968;52.094;4.328;2023-05-16T13:50:55;70.49;54.65;82.12;;
57092;Laerm;42968;52.094;4.328;2023-05-16T13:53:21;71.88;53.57;87.39;;
57092;Laerm;42968;52.094;4.328;2023-05-16T13:55:47;68.43;46.76;80.21;;
57092;Laerm;42968;52.094;4.328;2023-05-16T13:58:12;69.38;49.60;75.70;;
57092;Laerm;42968;52.094;4.328;2023-05-16T14:00:37;69.37;53.91;82.34;;
57092;Laerm;42968;52.094;4.328;2023-05-16T14:03:03;68.86;55.24;80.38;;